Time;durP1;ratioP1;P1;durP2;ratioP2;P2;SDS_P1;SDS_P2;PMS_P1;PMS_P2;Temp;Humidity;BMP_temperature;BMP_pressure;BME280_temperature;BME280_humidity;BME280_pressure;Samples;Min_cycle;Max_cycle;Signal;HPM_P1;HPM_P2
2021/03/28 00:01:02;;;;;;;12.35;3.60;;;7.10;98.70;;;;;;5050512;28;20025;-50
2021/03/28 00:03:34;;;;;;;7.22;3.65;;;7.10;98.90;;;;;;5050373;28;20075;-47
2021/03/28 00:06:36;;;;;;;8.15;3.83;;;7.00;99.10;;;;;;5050650;28;20071;-51
2021/03/28 00:09:06;;;;;;;9.15;3.63;;;7.00;99.10;;;;;;5054728;28;20021;-49
2021/03/28 00:11:53;;;;;;;7.70;3.90;;;7.00;99.20;;;;;;5054858;28;20017;-51
2021/03/28 00:14:41;;;;;;;13.90;4.70;;;7.00;99.30;;;;;;5054383;28;20021;-49
2021/03/28 00:17:19;;;;;;;11.43;4.45;;;7.00;99.30;;;;;;5053944;28;20394;-49
2021/03/28 00:19:51;;;;;;;16.00;4.15;;;6.90;99.40;;;;;;5054349;28;20028;-49
2021/03/28 00:22:26;;;;;;;13.63;4.30;;;6.90;99.60;;;;;;5054166;28;20021;-46
2021/03/28 00:25:10;;;;;;;11.00;3.97;;;7.00;99.70;;;;;;5054286;28;20032;-49
2021/03/28 00:27:49;;;;;;;12.60;4.13;;;7.00;99.70;;;;;;5053975;28;20029;-48
2021/03/28 00:30:15;;;;;;;8.15;3.92;;;7.00;99.80;;;;;;5053943;28;20482;-47
2021/03/28 00:32:48;;;;;;;9.95;4.60;;;7.10;99.20;;;;;;5052488;28;20040;-50
2021/03/28 00:35:18;;;;;;;9.00;4.75;;;7.10;99.50;;;;;;5053991;28;20025;-51
2021/03/28 00:37:46;;;;;;;10.23;4.38;;;7.10;99.50;;;;;;5053977;28;20032;-47
2021/03/28 00:40:15;;;;;;;14.40;5.05;;;7.10;99.50;;;;;;5053713;28;20550;-53
2021/03/28 00:43:03;;;;;;;8.07;4.47;;;7.10;99.70;;;;;;5053497;28;20083;-51
2021/03/28 00:45:45;;;;;;;12.57;5.25;;;7.10;99.90;;;;;;5053785;28;20032;-50
2021/03/28 00:48:15;;;;;;;13.40;4.53;;;7.00;99.90;;;;;;5053666;28;20418;-46
2021/03/28 00:50:51;;;;;;;12.10;5.60;;;6.90;99.90;;;;;;5053633;28;20025;-49
2021/03/28 00:53:43;;;;;;;10.27;5.10;;;6.80;99.90;;;;;;5053837;28;20104;-49
2021/03/28 00:56:36;;;;;;;11.55;5.50;;;6.70;99.90;;;;;;5053653;28;20021;-51
2021/03/28 00:59:17;;;;;;;9.05;5.05;;;6.60;99.90;;;;;;5053632;28;20196;-51
2021/03/28 01:02:05;;;;;;;10.20;5.07;;;6.60;99.90;;;;;;5053241;28;20021;-53
2021/03/28 01:04:39;;;;;;;14.40;5.13;;;6.60;99.90;;;;;;5053154;28;20025;-48
2021/03/28 01:07:14;;;;;;;8.60;4.88;;;6.60;99.90;;;;;;5053611;28;20088;-49
2021/03/28 01:09:59;;;;;;;14.30;5.07;;;6.50;99.90;;;;;;5053401;28;20017;-47
2021/03/28 01:12:46;;;;;;;10.07;5.63;;;6.50;99.90;;;;;;5053148;28;20108;-48
2021/03/28 01:15:56;;;;;;;14.07;6.80;;;6.60;99.90;;;;;;5053451;28;20475;-49
2021/03/28 01:18:39;;;;;;;15.00;5.40;;;6.50;99.90;;;;;;5052651;28;20486;-51
2021/03/28 01:21:18;;;;;;;11.07;5.10;;;6.50;99.90;;;;;;5051824;28;20032;-51
2021/03/28 01:23:54;;;;;;;12.00;5.75;;;6.60;99.90;;;;;;5052670;28;20036;-51
2021/03/28 01:26:39;;;;;;;10.43;4.95;;;6.60;99.90;;;;;;5052852;28;20033;-50
2021/03/28 01:29:28;;;;;;;17.43;7.30;;;6.60;99.90;;;;;;5053165;28;20017;-47
2021/03/28 01:31:59;;;;;;;10.25;5.10;;;6.60;99.90;;;;;;5052864;28;20021;-51
2021/03/28 01:34:46;;;;;;;12.57;5.55;;;6.60;99.90;;;;;;5052825;28;20418;-50
2021/03/28 01:37:20;;;;;;;11.60;5.65;;;6.60;99.90;;;;;;5052874;28;20021;-50
2021/03/28 01:40:05;;;;;;;12.30;6.90;;;6.70;99.90;;;;;;5051588;28;20029;-50
2021/03/28 01:42:34;;;;;;;10.82;5.63;;;6.70;99.90;;;;;;5051560;22;20045;-49
2021/03/28 01:45:44;;;;;;;11.05;6.00;;;6.70;99.90;;;;;;5032177;28;20026;-50
2021/03/28 01:48:31;;;;;;;12.63;6.10;;;6.70;99.90;;;;;;5025296;28;20431;-46
2021/03/28 01:51:25;;;;;;;12.40;5.90;;;6.60;99.90;;;;;;5032264;28;20022;-48
2021/03/28 01:54:12;;;;;;;15.82;5.93;;;6.60;99.90;;;;;;5031503;28;20022;-48
2021/03/28 01:57:04;;;;;;;9.00;5.80;;;6.70;99.90;;;;;;5032445;28;20029;-48
2021/03/28 02:00:06;;;;;;;14.55;6.75;;;6.80;99.90;;;;;;5032236;28;20029;-52
2021/03/28 02:02:41;;;;;;;8.50;4.88;;;6.80;99.90;;;;;;5030592;28;20460;-51
2021/03/28 02:05:44;;;;;;;9.98;5.72;;;6.90;99.90;;;;;;5032420;28;20033;-49
2021/03/28 02:08:36;;;;;;;10.60;5.28;;;6.90;99.90;;;;;;5032045;28;20509;-52
2021/03/28 02:11:27;;;;;;;14.80;5.88;;;6.80;99.90;;;;;;5024548;28;20033;-50
2021/03/28 02:14:14;;;;;;;16.55;6.72;;;6.70;99.90;;;;;;5031257;28;20105;-49
2021/03/28 02:17:02;;;;;;;17.35;6.68;;;6.60;99.90;;;;;;5030160;28;20372;-49
2021/03/28 02:19:31;;;;;;;16.15;6.28;;;6.60;99.90;;;;;;5030766;28;20021;-49
2021/03/28 02:22:15;;;;;;;12.77;5.32;;;6.60;99.90;;;;;;5031719;28;20026;-48
2021/03/28 02:24:48;;;;;;;16.08;5.70;;;6.50;99.90;;;;;;5031562;28;20430;-48
2021/03/28 02:27:21;;;;;;;9.73;5.47;;;6.60;99.90;;;;;;5031700;28;20022;-52
2021/03/28 02:30:05;;;;;;;12.75;5.93;;;6.60;99.90;;;;;;5030702;28;20097;-49
2021/03/28 02:32:43;;;;;;;12.20;6.28;;;6.60;99.90;;;;;;5031408;28;20491;-50
2021/03/28 02:35:51;;;;;;;10.27;5.55;;;6.70;99.90;;;;;;5031388;28;20076;-48
2021/03/28 02:38:25;;;;;;;18.92;6.68;;;6.70;99.90;;;;;;5031592;28;20025;-48
2021/03/28 02:41:12;;;;;;;14.32;6.82;;;6.80;99.90;;;;;;5029801;28;20060;-50
2021/03/28 02:44:10;;;;;;;18.95;6.80;;;6.80;99.90;;;;;;5030532;28;20044;-49
2021/03/28 02:46:56;;;;;;;12.93;5.65;;;6.90;99.90;;;;;;5031216;28;20033;-51
2021/03/28 02:50:00;;;;;;;10.80;5.65;;;6.90;99.90;;;;;;5031223;28;20026;-50
2021/03/28 02:52:53;;;;;;;14.55;5.80;;;6.90;99.90;;;;;;5031394;28;20028;-50
2021/03/28 02:56:03;;;;;;;13.00;5.22;;;6.90;99.90;;;;;;5031014;28;20033;-53
2021/03/28 02:58:58;;;;;;;15.10;6.10;;;7.00;99.90;;;;;;5030921;28;20033;-50
2021/03/28 03:01:39;;;;;;;11.93;6.07;;;7.00;99.90;;;;;;5030927;28;20021;-50
2021/03/28 03:04:39;;;;;;;9.88;6.35;;;7.00;99.90;;;;;;5030275;28;20033;-48
2021/03/28 03:07:32;;;;;;;15.02;5.53;;;7.00;99.90;;;;;;5031008;28;20410;-47
2021/03/28 03:10:47;;;;;;;8.80;4.97;;;7.00;99.90;;;;;;5030763;28;20029;-51
2021/03/28 03:13:30;;;;;;;18.42;5.88;;;7.10;99.90;;;;;;5029903;28;20036;-49
2021/03/28 03:16:00;;;;;;;15.07;6.07;;;7.10;99.90;;;;;;5030713;28;20121;-52
2021/03/28 03:18:48;;;;;;;9.75;5.10;;;7.10;99.90;;;;;;5030703;28;20476;-49
2021/03/28 03:21:13;;;;;;;13.73;6.05;;;7.20;99.90;;;;;;5030635;28;20021;-52
2021/03/28 03:24:20;;;;;;;17.75;5.93;;;7.20;99.90;;;;;;5029796;28;20028;-51
2021/03/28 03:27:04;;;;;;;15.93;5.95;;;7.20;99.90;;;;;;5024660;28;20046;-49
2021/03/28 03:29:41;;;;;;;13.95;6.10;;;7.20;99.90;;;;;;5029371;28;20080;-47
2021/03/28 03:32:41;;;;;;;11.95;5.90;;;7.10;99.90;;;;;;5030414;28;20120;-50
2021/03/28 03:35:19;;;;;;;9.93;5.50;;;7.10;99.90;;;;;;5030396;28;20017;-49
2021/03/28 03:38:06;;;;;;;12.75;5.88;;;7.00;99.90;;;;;;5030341;28;20061;-48
2021/03/28 03:40:52;;;;;;;10.90;4.72;;;7.00;99.90;;;;;;5028849;28;20028;-47
2021/03/28 03:43:21;;;;;;;;;;;7.00;99.90;;;;;;5030205;28;20042;-51
2021/03/28 03:45:57;;;;;;;9.55;5.20;;;7.00;99.90;;;;;;5030349;28;20003;-50
2021/03/28 03:48:48;;;;;;;13.93;6.38;;;7.00;99.90;;;;;;5030483;28;20538;-50
2021/03/28 03:51:28;;;;;;;13.18;5.68;;;7.00;99.90;;;;;;5029097;28;20048;-52
2021/03/28 03:54:21;;;;;;;10.15;4.90;;;7.00;99.90;;;;;;5028578;28;20028;-50
2021/03/28 03:57:12;;;;;;;11.35;5.80;;;7.00;99.90;;;;;;5030357;28;20509;-49
2021/03/28 03:59:55;;;;;;;17.77;5.70;;;7.00;99.90;;;;;;5030303;28;20543;-48
2021/03/28 04:02:53;;;;;;;11.48;5.20;;;7.00;99.90;;;;;;5030866;28;20032;-47
2021/03/28 04:05:54;;;;;;;15.40;4.95;;;7.00;99.90;;;;;;5026008;28;20072;-50
2021/03/28 04:08:25;;;;;;;15.75;6.00;;;7.00;99.90;;;;;;5030677;28;20537;-51
2021/03/28 04:11:05;;;;;;;14.55;5.55;;;7.00;99.90;;;;;;5029101;28;20116;-49
2021/03/28 04:13:52;;;;;;;17.70;5.70;;;7.00;99.90;;;;;;5028527;28;20028;-49
2021/03/28 04:16:20;;;;;;;11.80;4.85;;;7.00;99.90;;;;;;5028114;28;20030;-47
2021/03/28 04:19:28;;;;;;;19.50;6.05;;;7.00;99.90;;;;;;5029379;28;20068;-49
2021/03/28 04:22:14;;;;;;;17.10;5.25;;;7.00;99.90;;;;;;5030520;28;20037;-47
2021/03/28 04:25:01;;;;;;;10.93;5.75;;;7.10;99.90;;;;;;5030043;28;20021;-50
2021/03/28 04:27:45;;;;;;;10.57;4.93;;;7.10;99.90;;;;;;5029365;28;20074;-47
2021/03/28 04:30:29;;;;;;;10.40;6.03;;;7.10;99.90;;;;;;5030360;28;20017;-47
2021/03/28 04:33:17;;;;;;;15.05;6.28;;;7.00;99.90;;;;;;5029890;28;20431;-47
2021/03/28 04:35:57;;;;;;;11.18;4.72;;;7.10;99.90;;;;;;5030694;28;20026;-47
2021/03/28 04:39:03;;;;;;;11.85;5.60;;;7.10;99.90;;;;;;5028849;28;20120;-47
2021/03/28 04:41:37;;;;;;;15.02;5.25;;;7.10;99.90;;;;;;4980692;28;20127;-48
2021/03/28 04:44:46;;;;;;;11.95;4.50;;;7.10;99.90;;;;;;5030000;28;20163;-50
2021/03/28 04:47:59;;;;;;;11.40;4.85;;;7.00;99.90;;;;;;4995991;28;20052;-48
2021/03/28 04:50:52;;;;;;;10.30;5.40;;;7.10;99.90;;;;;;5030089;28;20053;-50
2021/03/28 04:53:59;;;;;;;13.75;4.85;;;7.10;99.90;;;;;;5031153;28;20132;-49
2021/03/28 04:56:24;;;;;;;;;;;7.10;99.90;;;;;;5034050;28;20021;-50
2021/03/28 04:59:18;;;;;;;14.07;5.38;;;7.00;99.90;;;;;;5032264;28;19905;-49
2021/03/28 05:02:01;;;;;;;9.05;4.78;;;6.90;99.90;;;;;;5032054;28;20030;-51
2021/03/28 05:05:04;;;;;;;11.75;5.18;;;7.00;99.90;;;;;;5032827;28;20029;-49
2021/03/28 05:07:44;;;;;;;17.08;6.38;;;6.90;99.90;;;;;;5033300;28;20036;-47
2021/03/28 05:10:38;;;;;;;8.73;5.28;;;6.90;99.90;;;;;;5033446;28;20043;-47
2021/03/28 05:13:22;;;;;;;11.35;4.90;;;6.90;99.90;;;;;;5031237;28;20030;-49
2021/03/28 05:16:15;;;;;;;11.63;4.75;;;6.80;99.90;;;;;;5030613;28;20029;-50
2021/03/28 05:19:12;;;;;;;17.02;5.40;;;6.80;99.90;;;;;;5033063;28;20025;-53
2021/03/28 05:22:17;;;;;;;10.13;5.32;;;6.80;99.90;;;;;;5031486;28;20029;-49
2021/03/28 05:25:02;;;;;;;12.30;5.30;;;6.80;99.90;;;;;;5032027;28;20095;-50
2021/03/28 05:28:06;;;;;;;13.15;6.07;;;6.80;99.90;;;;;;5032804;28;20056;-50
2021/03/28 05:30:50;;;;;;;16.95;5.13;;;6.80;99.90;;;;;;5032734;28;20018;-46
2021/03/28 05:33:46;;;;;;;25.50;4.90;;;6.80;99.90;;;;;;5027032;28;20021;-50
2021/03/28 05:36:26;;;;;;;10.35;5.40;;;6.70;99.90;;;;;;5032054;28;20541;-50
2021/03/28 05:39:06;;;;;;;15.65;5.47;;;6.80;99.90;;;;;;5032358;28;20453;-48
2021/03/28 05:41:31;;;;;;;14.40;4.45;;;6.80;99.90;;;;;;5018997;28;20525;-49
2021/03/28 05:44:18;;;;;;;8.85;4.20;;;6.80;99.90;;;;;;5031793;28;20033;-51
2021/03/28 05:47:01;;;;;;;15.02;4.75;;;6.90;99.90;;;;;;5030574;28;20041;-47
2021/03/28 05:49:55;;;;;;;10.85;4.22;;;7.00;99.90;;;;;;5030603;28;20375;-49
2021/03/28 05:53:15;;;;;;;17.00;5.22;;;7.10;99.90;;;;;;5032126;28;20020;-54
2021/03/28 05:56:08;;;;;;;12.02;5.40;;;7.20;99.90;;;;;;4966533;28;20033;-50
2021/03/28 05:58:57;;;;;;;13.45;5.30;;;7.40;99.90;;;;;;5032670;28;20643;-47
2021/03/28 06:01:46;;;;;;;19.10;4.82;;;7.60;99.90;;;;;;5031271;28;20039;-50
2021/03/28 06:04:49;;;;;;;13.63;4.38;;;7.70;99.90;;;;;;4988680;28;20573;-48
2021/03/28 06:07:48;;;;;;;7.93;4.88;;;7.80;99.90;;;;;;5012351;28;20037;-50
2021/03/28 06:11:05;;;;;;;13.88;5.93;;;8.00;99.70;;;;;;5012376;28;20026;-50
2021/03/28 06:13:46;;;;;;;13.43;4.13;;;8.00;99.00;;;;;;4985954;28;20073;-51
2021/03/28 06:16:31;;;;;;;14.82;4.43;;;8.00;99.10;;;;;;5028576;28;20024;-51
2021/03/28 06:19:34;;;;;;;12.45;4.82;;;8.00;99.20;;;;;;5030660;28;20032;-52
2021/03/28 06:22:38;;;;;;;15.70;4.60;;;8.10;99.30;;;;;;5031850;28;20060;-53
2021/03/28 06:25:48;;;;;;;10.50;4.22;;;8.10;99.50;;;;;;5032330;28;20036;-53
2021/03/28 06:28:33;;;;;;;9.88;5.00;;;8.20;99.70;;;;;;5032036;28;20057;-51
2021/03/28 06:31:33;;;;;;;9.35;5.07;;;8.20;99.40;;;;;;5031917;28;20025;-54
2021/03/28 06:34:27;;;;;;;13.77;5.55;;;8.20;99.20;;;;;;4993031;28;20025;-50
2021/03/28 06:37:29;;;;;;;10.32;4.80;;;8.10;99.10;;;;;;5031497;28;20029;-56
2021/03/28 06:40:42;;;;;;;11.15;4.75;;;8.00;99.20;;;;;;5031393;28;20040;-49
2021/03/28 06:43:44;;;;;;;12.88;5.40;;;7.90;99.50;;;;;;5023575;28;20040;-53
2021/03/28 06:46:31;;;;;;;12.15;5.60;;;7.80;99.70;;;;;;5030400;28;20302;-49
2021/03/28 06:49:34;;;;;;;8.15;4.53;;;7.80;99.90;;;;;;5029650;28;20525;-54
2021/03/28 06:52:29;;;;;;;9.93;4.25;;;7.90;99.90;;;;;;5011330;28;20087;-55
2021/03/28 06:55:31;;;;;;;20.38;4.70;;;8.10;99.90;;;;;;5027623;28;20021;-56
2021/03/28 06:58:28;;;;;;;9.77;3.38;;;9.00;97.90;;;;;;5031058;28;20114;-54
2021/03/28 07:01:21;;;;;;;14.20;4.40;;;9.90;96.70;;;;;;5026727;28;20025;-52
2021/03/28 07:03:59;;;;;;;11.60;5.18;;;10.90;94.50;;;;;;5030641;28;20037;-45
2021/03/28 07:06:30;;;;;;;9.00;4.10;;;11.80;92.80;;;;;;5030632;28;20038;-47
2021/03/28 07:09:38;;;;;;;10.10;3.90;;;12.20;91.80;;;;;;5029850;28;20045;-46
2021/03/28 07:12:03;;;;;;;10.68;4.60;;;12.70;91.10;;;;;;5031253;28;20028;-45
2021/03/28 07:15:06;;;;;;;7.57;3.88;;;12.80;90.00;;;;;;5030529;28;20479;-49
2021/03/28 07:17:44;;;;;;;11.93;3.67;;;12.40;90.60;;;;;;5030799;28;20151;-45
2021/03/28 07:20:42;;;;;;;8.65;3.63;;;12.10;91.30;;;;;;5031072;28;20390;-44
2021/03/28 07:23:19;;;;;;;13.07;4.78;;;11.90;91.00;;;;;;5030060;28;20026;-49
2021/03/28 07:25:51;;;;;;;12.05;3.92;;;11.80;90.90;;;;;;5030663;28;20108;-45
2021/03/28 07:28:58;;;;;;;14.27;3.45;;;11.70;91.30;;;;;;5030785;28;20017;-47
2021/03/28 07:31:41;;;;;;;10.10;3.67;;;11.80;91.40;;;;;;5030166;28;20045;-46
2021/03/28 07:34:25;;;;;;;10.73;4.43;;;12.30;91.30;;;;;;5030161;28;20034;-48
2021/03/28 07:37:13;;;;;;;15.65;3.67;;;12.90;90.40;;;;;;5030732;28;20075;-44
2021/03/28 07:40:09;;;;;;;8.55;3.55;;;13.00;87.20;;;;;;5029397;28;20025;-46
2021/03/28 07:43:02;;;;;;;14.15;4.25;;;12.80;87.90;;;;;;5057429;23;20052;-47
2021/03/28 07:46:17;;;;;;;9.75;4.13;;;12.50;89.60;;;;;;5050755;28;20032;-46
2021/03/28 07:49:13;;;;;;;9.82;3.55;;;12.30;89.90;;;;;;5065812;28;20017;-46
2021/03/28 07:52:16;;;;;;;7.10;3.22;;;12.30;90.20;;;;;;5050353;28;20025;-44
2021/03/28 07:55:20;;;;;;;6.68;3.20;;;12.60;90.20;;;;;;5050371;28;20021;-47
2021/03/28 07:58:06;;;;;;;10.07;3.45;;;13.10;87.50;;;;;;5050586;28;20589;-45
2021/03/28 08:00:44;;;;;;;8.40;3.30;;;14.50;84.60;;;;;;5050589;28;20033;-47
2021/03/28 08:03:28;;;;;;;8.98;3.40;;;15.80;78.70;;;;;;5050061;28;20057;-46
2021/03/28 08:06:24;;;;;;;14.20;3.92;;;16.90;75.20;;;;;;5050471;28;20029;-51
2021/03/28 08:09:04;;;;;;;9.27;2.97;;;18.30;69.60;;;;;;5021733;28;20106;-45
2021/03/28 08:11:54;;;;;;;9.25;3.13;;;18.70;66.30;;;;;;5049366;28;20402;-47
2021/03/28 08:14:32;;;;;;;11.85;3.78;;;18.90;63.90;;;;;;5049800;28;20087;-46
2021/03/28 08:17:19;;;;;;;10.20;3.75;;;18.60;63.00;;;;;;5050384;28;20079;-47
2021/03/28 08:20:00;;;;;;;8.93;3.60;;;18.10;63.20;;;;;;5050277;28;20084;-48
2021/03/28 08:22:47;;;;;;;8.52;3.05;;;18.00;64.30;;;;;;5050003;28;20413;-46
2021/03/28 08:25:36;;;;;;;4.90;3.20;;;17.60;64.80;;;;;;5050715;28;20378;-48
2021/03/28 08:28:04;;;;;;;10.48;3.58;;;16.30;66.70;;;;;;5051931;28;20151;-43
2021/03/28 08:31:06;;;;;;;10.02;3.75;;;15.50;69.50;;;;;;5054104;28;20033;-45
2021/03/28 08:33:52;;;;;;;9.30;3.97;;;14.70;72.90;;;;;;5052561;28;20021;-46
2021/03/28 08:36:54;;;;;;;12.77;4.20;;;14.10;75.50;;;;;;5052710;28;20123;-46
2021/03/28 08:39:40;;;;;;;11.73;3.97;;;13.60;77.20;;;;;;5052758;28;20528;-43
2021/03/28 08:42:14;;;;;;;12.75;3.92;;;13.50;78.70;;;;;;5053608;28;20037;-47
2021/03/28 08:44:47;;;;;;;14.98;4.80;;;13.50;79.20;;;;;;5053262;28;20494;-52
2021/03/28 08:47:36;;;;;;;10.20;3.33;;;13.00;79.40;;;;;;5053797;28;20075;-48
2021/03/28 08:50:14;;;;;;;11.75;3.72;;;12.60;80.80;;;;;;5053823;28;20112;-45
2021/03/28 08:52:54;;;;;;;12.98;3.95;;;12.50;82.50;;;;;;5053029;28;20017;-43
2021/03/28 08:56:10;;;;;;;8.25;3.10;;;13.00;81.40;;;;;;5054206;28;20025;-46
2021/03/28 08:58:59;;;;;;;10.00;3.78;;;13.90;78.00;;;;;;5054260;28;20425;-46
2021/03/28 09:01:47;;;;;;;8.02;3.60;;;15.20;75.00;;;;;;5045340;28;20052;-45
2021/03/28 09:04:46;;;;;;;6.47;3.00;;;16.30;71.30;;;;;;5053209;28;20032;-48
2021/03/28 09:07:42;;;;;;;8.63;3.30;;;17.40;67.90;;;;;;5053533;28;20372;-45
2021/03/28 09:10:48;;;;;;;10.05;3.75;;;18.10;65.80;;;;;;5052369;28;20120;-46
2021/03/28 09:13:14;;;;;;;;;;;19.10;61.50;;;;;;4980574;28;20038;-46
2021/03/28 09:16:18;;;;;;;9.75;3.40;;;18.90;62.30;;;;;;5018396;28;20363;-51
2021/03/28 09:19:03;;;;;;;5.82;3.28;;;19.70;60.80;;;;;;5051319;28;20033;-49
2021/03/28 09:21:37;;;;;;;10.73;3.08;;;20.70;58.30;;;;;;5053405;28;20458;-50
2021/03/28 09:24:18;;;;;;;7.53;3.33;;;21.10;56.80;;;;;;5051761;28;20457;-48
2021/03/28 09:27:14;;;;;;;7.82;2.95;;;21.30;56.10;;;;;;5032946;28;20526;-53
2021/03/28 09:30:02;;;;;;;10.35;3.25;;;21.20;55.60;;;;;;5041599;28;20498;-50
2021/03/28 09:32:46;;;;;;;13.93;3.40;;;20.90;56.00;;;;;;5051972;28;20040;-49
2021/03/28 09:35:23;;;;;;;8.68;2.92;;;20.20;55.70;;;;;;5052108;28;20033;-46
2021/03/28 09:38:22;;;;;;;11.70;4.07;;;19.70;57.20;;;;;;5052966;28;20021;-49
2021/03/28 09:41:09;;;;;;;8.02;3.03;;;19.60;58.40;;;;;;5047328;28;20036;-44
2021/03/28 09:43:52;;;;;;;15.25;3.58;;;18.90;57.60;;;;;;5050622;28;20390;-50
2021/03/28 09:46:37;;;;;;;11.75;3.47;;;18.50;58.10;;;;;;5050471;28;20120;-52
2021/03/28 09:49:26;;;;;;;7.35;2.97;;;18.20;59.20;;;;;;5050969;28;20478;-49
2021/03/28 09:52:12;;;;;;;9.20;3.00;;;17.90;58.20;;;;;;5051678;28;20029;-54
2021/03/28 09:55:05;;;;;;;7.15;3.33;;;16.90;59.10;;;;;;5051267;28;20071;-57
2021/03/28 09:58:08;;;;;;;11.15;2.78;;;16.20;62.70;;;;;;5048339;28;20036;-50
2021/03/28 10:01:07;;;;;;;7.00;2.63;;;16.40;62.60;;;;;;5031948;28;20024;-45
2021/03/28 10:03:36;;;;;;;6.47;1.90;;;16.70;59.90;;;;;;5029771;28;20021;-52
2021/03/28 10:06:19;;;;;;;7.32;1.85;;;16.70;57.60;;;;;;5033759;28;20100;-51
2021/03/28 10:08:49;;;;;;;6.65;1.88;;;16.90;58.00;;;;;;5051352;28;20017;-59
2021/03/28 10:11:24;;;;;;;6.22;2.15;;;16.80;55.70;;;;;;5050959;28;20021;-59
2021/03/28 10:14:10;;;;;;;3.87;1.63;;;16.90;55.80;;;;;;5050997;28;20036;-58
2021/03/28 10:16:53;;;;;;;6.53;1.63;;;16.90;56.00;;;;;;5051147;28;20142;-50
2021/03/28 10:19:39;;;;;;;5.85;1.77;;;16.60;54.30;;;;;;5051435;28;20425;-53
2021/03/28 10:22:24;;;;;;;8.02;1.80;;;16.30;56.10;;;;;;5050706;28;20031;-56
2021/03/28 10:25:25;;;;;;;4.13;1.60;;;16.00;56.90;;;;;;5050732;28;20025;-52
2021/03/28 10:28:15;;;;;;;7.28;1.60;;;15.80;57.40;;;;;;5051061;28;20107;-59
2021/03/28 10:30:53;;;;;;;3.22;1.60;;;15.60;54.90;;;;;;5066508;28;20025;-54
2021/03/28 10:33:57;;;;;;;4.05;1.70;;;15.60;55.00;;;;;;5050298;28;20021;-54
2021/03/28 10:36:34;;;;;;;2.63;1.23;;;15.60;54.20;;;;;;5032920;28;20115;-50
2021/03/28 10:39:27;;;;;;;3.17;1.20;;;15.60;54.30;;;;;;5050807;28;20033;-53
2021/03/28 10:42:22;;;;;;;5.90;1.95;;;15.40;55.90;;;;;;5050631;28;20513;-49
2021/03/28 10:44:56;;;;;;;6.30;1.92;;;14.90;55.00;;;;;;5050662;28;20039;-51
2021/03/28 10:47:53;;;;;;;4.30;1.65;;;14.70;58.20;;;;;;5050481;28;20033;-51
2021/03/28 10:50:53;;;;;;;7.15;1.88;;;14.70;59.40;;;;;;5048712;28;20025;-50
2021/03/28 10:53:39;;;;;;;4.47;1.90;;;14.50;58.70;;;;;;5050290;28;20017;-50
2021/03/28 10:56:23;;;;;;;5.78;1.85;;;14.40;60.00;;;;;;5050707;28;20633;-51
2021/03/28 10:59:07;;;;;;;7.80;2.13;;;14.60;60.90;;;;;;5049498;28;20024;-52
2021/03/28 11:01:36;;;;;;;7.13;2.05;;;14.50;59.40;;;;;;5050125;28;20029;-53
2021/03/28 11:04:29;;;;;;;9.20;2.13;;;14.40;59.30;;;;;;5049776;28;20116;-51
2021/03/28 11:07:14;;;;;;;5.82;1.90;;;14.50;58.60;;;;;;5050359;28;20032;-54
2021/03/28 11:09:56;;;;;;;6.72;1.77;;;14.50;58.50;;;;;;5050350;28;20021;-57
2021/03/28 11:12:39;;;;;;;9.73;2.10;;;14.60;58.50;;;;;;5049231;28;20104;-50
2021/03/28 11:15:41;;;;;;;7.70;1.75;;;14.80;58.30;;;;;;5050186;28;20021;-49
2021/03/28 11:18:16;;;;;;;5.30;1.77;;;14.80;58.90;;;;;;5050498;28;20059;-52
2021/03/28 11:21:13;;;;;;;4.72;1.90;;;14.90;58.50;;;;;;5050168;28;20105;-59
2021/03/28 11:23:58;;;;;;;5.32;1.77;;;14.90;58.80;;;;;;5049733;28;20059;-49
2021/03/28 11:26:23;;;;;;;3.33;1.63;;;15.00;58.40;;;;;;5049931;28;20064;-53
2021/03/28 11:29:01;;;;;;;3.67;1.50;;;15.00;58.10;;;;;;5050137;28;20056;-49
2021/03/28 11:31:26;;;;;;;7.05;1.98;;;15.10;58.70;;;;;;5049480;28;20021;-52
2021/03/28 11:34:19;;;;;;;7.05;2.78;;;15.00;57.20;;;;;;5050069;28;20041;-51
2021/03/28 11:37:04;;;;;;;4.60;1.60;;;15.00;57.60;;;;;;5048406;28;20021;-51
2021/03/28 11:39:32;;;;;;;4.05;1.40;;;15.00;58.00;;;;;;5048619;28;20029;-48
2021/03/28 11:42:03;;;;;;;5.72;1.90;;;15.00;58.70;;;;;;5049082;28;20033;-48
2021/03/28 11:44:59;;;;;;;9.65;2.28;;;15.10;57.10;;;;;;5047787;28;20092;-47
2021/03/28 11:47:39;;;;;;;6.78;1.52;;;15.10;57.40;;;;;;5049688;28;20045;-52
2021/03/28 11:50:28;;;;;;;5.30;1.70;;;15.10;58.00;;;;;;5048811;28;20114;-47
2021/03/28 11:53:11;;;;;;;7.25;1.67;;;15.20;56.70;;;;;;5043525;28;20097;-51
2021/03/28 11:55:46;;;;;;;5.65;1.90;;;15.20;57.60;;;;;;5050102;28;20185;-46
2021/03/28 11:58:11;;;;;;;7.43;2.10;;;15.10;57.50;;;;;;5046525;28;20032;-50
2021/03/28 12:00:42;;;;;;;9.45;1.90;;;14.90;58.00;;;;;;5050854;28;20029;-49
2021/03/28 12:03:19;;;;;;;3.95;1.83;;;15.00;58.20;;;;;;5052896;28;20017;-47
2021/03/28 12:06:17;;;;;;;4.43;2.05;;;15.00;58.30;;;;;;5053629;28;20052;-47
2021/03/28 12:08:46;;;;;;;5.15;1.83;;;14.90;57.40;;;;;;5054298;28;20052;-46
2021/03/28 12:11:49;;;;;;;7.70;2.20;;;14.90;58.30;;;;;;5052384;28;20436;-49
2021/03/28 12:14:18;;;;;;;4.43;1.92;;;14.80;58.90;;;;;;5053247;28;20021;-51
2021/03/28 12:17:09;;;;;;;7.50;2.00;;;14.70;58.00;;;;;;5048193;28;20025;-51
2021/03/28 12:20:13;;;;;;;5.25;2.58;;;14.80;58.60;;;;;;5031756;28;20026;-53
2021/03/28 12:22:42;;;;;;;3.38;1.88;;;14.70;58.30;;;;;;5047951;28;20033;-55
2021/03/28 12:25:13;;;;;;;4.90;2.13;;;14.60;58.60;;;;;;5033330;28;20034;-53
2021/03/28 12:28:01;;;;;;;6.35;1.85;;;14.60;58.60;;;;;;5044655;28;20684;-56
2021/03/28 12:30:42;;;;;;;3.92;2.03;;;14.70;58.70;;;;;;5053691;28;20037;-50
2021/03/28 12:33:19;;;;;;;5.70;1.63;;;14.60;58.60;;;;;;5051885;28;20021;-52
2021/03/28 12:35:47;;;;;;;5.47;1.77;;;14.60;58.50;;;;;;5035839;28;20038;-53
2021/03/28 12:38:26;;;;;;;7.38;2.10;;;14.70;59.90;;;;;;5032220;28;20506;-51
2021/03/28 12:41:13;;;;;;;6.65;2.03;;;14.70;58.50;;;;;;5051953;28;20040;-56
2021/03/28 12:43:48;;;;;;;4.93;1.85;;;14.80;58.30;;;;;;5053051;28;20040;-53
2021/03/28 12:46:41;;;;;;;5.33;2.27;;;14.90;58.10;;;;;;5051864;28;20333;-57
2021/03/28 12:49:09;;;;;;;7.22;4.03;;;14.90;57.80;;;;;;5052362;28;20703;-50
2021/03/28 12:51:37;;;;;;;4.35;1.88;;;15.00;57.50;;;;;;5051927;28;20119;-53
2021/03/28 12:54:25;;;;;;;12.38;2.10;;;14.90;57.50;;;;;;5053002;28;20021;-50
2021/03/28 12:56:55;;;;;;;9.57;1.75;;;14.80;58.30;;;;;;5053466;28;20029;-52
2021/03/28 12:59:39;;;;;;;7.00;1.85;;;14.90;58.00;;;;;;5051769;28;20059;-50
2021/03/28 13:02:29;;;;;;;11.13;2.60;;;15.00;58.40;;;;;;5051851;28;20041;-48
2021/03/28 13:04:59;;;;;;;10.18;3.25;;;15.10;57.20;;;;;;5052403;28;20032;-54
2021/03/28 13:07:42;;;;;;;8.93;3.33;;;15.00;57.70;;;;;;5052847;28;20028;-55
2021/03/28 13:10:32;;;;;;;3.50;1.88;;;15.00;58.10;;;;;;5052674;28;20029;-52
2021/03/28 13:13:28;;;;;;;4.43;1.60;;;15.10;58.20;;;;;;5051397;28;20028;-52
2021/03/28 13:15:59;;;;;;;3.55;1.60;;;15.30;58.10;;;;;;5043802;28;20045;-51
2021/03/28 13:18:27;;;;;;;8.18;1.55;;;15.40;57.50;;;;;;5052284;28;20530;-54
2021/03/28 13:20:59;;;;;;;3.97;2.17;;;15.40;57.90;;;;;;5051123;28;20572;-54
2021/03/28 13:23:35;;;;;;;6.22;1.90;;;15.50;56.60;;;;;;5051594;28;20025;-54
2021/03/28 13:26:15;;;;;;;6.82;2.50;;;15.50;57.00;;;;;;5052341;28;20033;-55
2021/03/28 13:29:06;;;;;;;7.53;1.58;;;15.60;55.90;;;;;;5052200;28;20017;-49
2021/03/28 13:31:42;;;;;;;5.30;2.08;;;15.60;56.00;;;;;;5047175;28;20060;-50
2021/03/28 13:34:29;;;;;;;3.53;1.63;;;15.60;55.50;;;;;;5051556;28;20033;-49
2021/03/28 13:37:04;;;;;;;6.93;1.90;;;15.50;56.40;;;;;;5052230;28;20100;-55
2021/03/28 13:39:38;;;;;;;8.65;2.05;;;15.60;57.10;;;;;;5051588;28;20087;-52
2021/03/28 13:42:13;;;;;;;5.78;2.30;;;15.50;55.50;;;;;;5073191;22;20125;-46
2021/03/28 13:44:48;;;;;;;3.03;1.48;;;15.50;56.90;;;;;;5070283;28;20031;-53
2021/03/28 13:47:14;;;;;;;6.57;2.15;;;15.50;57.00;;;;;;5091570;28;20024;-50
2021/03/28 13:49:50;;;;;;;7.03;2.13;;;15.60;56.90;;;;;;5090449;28;20028;-50
2021/03/28 13:52:24;;;;;;;7.07;1.73;;;15.70;56.30;;;;;;5071217;28;20040;-52
2021/03/28 13:55:23;;;;;;;4.53;1.58;;;15.70;56.00;;;;;;5090149;28;20231;-50
2021/03/28 13:57:49;;;;;;;6.35;1.95;;;15.70;56.60;;;;;;5090998;28;20043;-52
2021/03/28 14:00:34;;;;;;;7.55;1.98;;;15.80;55.80;;;;;;5090236;28;20050;-51
2021/03/28 14:03:15;;;;;;;10.32;2.92;;;15.70;55.70;;;;;;5090668;28;20024;-57
2021/03/28 14:05:43;;;;;;;6.05;2.63;;;15.80;55.70;;;;;;5090885;28;20047;-61
2021/03/28 14:08:15;;;;;;;3.65;1.98;;;15.80;56.40;;;;;;5091656;28;20381;-60
2021/03/28 14:10:49;;;;;;;8.50;2.60;;;15.90;56.00;;;;;;5089887;28;20027;-49
2021/03/28 14:13:29;;;;;;;6.15;1.95;;;15.90;56.00;;;;;;5090832;28;20373;-55
2021/03/28 14:16:00;;;;;;;6.65;2.20;;;16.00;55.90;;;;;;5092823;28;20156;-57
2021/03/28 14:18:35;;;;;;;5.20;1.42;;;16.10;55.10;;;;;;5092276;28;20114;-58
2021/03/28 14:21:30;;;;;;;8.83;4.13;;;16.10;55.80;;;;;;5087740;28;20032;-44
2021/03/28 14:23:58;;;;;;;4.60;1.83;;;16.10;55.80;;;;;;5089125;28;20035;-46